sensor_id;sensor_type;location;lat;lon;timestamp;pressure;altitude;pressure_sealevel;temperature;humidity
50282;BME280;36176;51.506;10.272;2022-07-25T00:01:52;99290.75;;;17.47;73.11
50282;BME280;36176;51.506;10.272;2022-07-25T00:04:20;99286.75;;;17.41;73.92
50282;BME280;36176;51.506;10.272;2022-07-25T00:06:48;99288.31;;;17.32;74.54
50282;BME280;36176;51.506;10.272;2022-07-25T00:09:15;99276.84;;;17.30;74.13
50282;BME280;36176;51.506;10.272;2022-07-25T00:11:42;99269.66;;;17.31;74.31
50282;BME280;36176;51.506;10.272;2022-07-25T00:14:09;99273.34;;;17.30;74.54
50282;BME280;36176;51.506;10.272;2022-07-25T00:16:36;99269.91;;;17.28;75.25
50282;BME280;36176;51.506;10.272;2022-07-25T00:19:04;99257.25;;;17.18;75.16
50282;BME280;36176;51.506;10.272;2022-07-25T00:21:31;99265.53;;;17.15;75.21
50282;BME280;36176;51.506;10.272;2022-07-25T00:24:01;99264.44;;;17.18;75.51
50282;BME280;36176;51.506;10.272;2022-07-25T00:26:29;99264.78;;;17.13;75.80
50282;BME280;36176;51.506;10.272;2022-07-25T00:28:56;99255.28;;;17.09;75.98
50282;BME280;36176;51.506;10.272;2022-07-25T00:31:23;99254.69;;;17.06;76.20
50282;BME280;36176;51.506;10.272;2022-07-25T00:33:50;99252.94;;;17.05;76.32
50282;BME280;36176;51.506;10.272;2022-07-25T00:36:20;99258.78;;;16.98;76.72
50282;BME280;36176;51.506;10.272;2022-07-25T00:38:47;99251.84;;;16.96;77.08
50282;BME280;36176;51.506;10.272;2022-07-25T00:41:16;99250.03;;;16.96;77.27
50282;BME280;36176;51.506;10.272;2022-07-25T00:43:44;99253.78;;;16.94;77.11
50282;BME280;36176;51.506;10.272;2022-07-25T00:46:15;99262.06;;;16.91;77.29
50282;BME280;36176;51.506;10.272;2022-07-25T00:48:45;99263.25;;;16.87;77.58
50282;BME280;36176;51.506;10.272;2022-07-25T00:51:12;99252.81;;;16.84;77.92
50282;BME280;36176;51.506;10.272;2022-07-25T00:53:40;99260.19;;;16.80;78.36
50282;BME280;36176;51.506;10.272;2022-07-25T00:56:08;99251.22;;;16.81;77.87
50282;BME280;36176;51.506;10.272;2022-07-25T00:58:35;99258.03;;;16.85;77.66
50282;BME280;36176;51.506;10.272;2022-07-25T01:01:05;99253.66;;;16.84;77.82
50282;BME280;36176;51.506;10.272;2022-07-25T01:03:32;99253.00;;;16.80;78.05
50282;BME280;36176;51.506;10.272;2022-07-25T01:06:00;99247.97;;;16.76;77.81
50282;BME280;36176;51.506;10.272;2022-07-25T01:08:27;99247.38;;;16.72;77.77
50282;BME280;36176;51.506;10.272;2022-07-25T01:10:57;99240.94;;;16.75;78.09
50282;BME280;36176;51.506;10.272;2022-07-25T01:13:24;99242.03;;;16.72;77.49
50282;BME280;36176;51.506;10.272;2022-07-25T01:15:51;99248.72;;;16.67;77.76
50282;BME280;36176;51.506;10.272;2022-07-25T01:18:18;99241.78;;;16.64;77.60
50282;BME280;36176;51.506;10.272;2022-07-25T01:20:45;99243.06;;;16.58;78.10
50282;BME280;36176;51.506;10.272;2022-07-25T01:23:12;99240.88;;;16.52;77.98
50282;BME280;36176;51.506;10.272;2022-07-25T01:25:39;99245.81;;;16.46;77.83
50282;BME280;36176;51.506;10.272;2022-07-25T01:28:06;99243.59;;;16.40;78.41
50282;BME280;36176;51.506;10.272;2022-07-25T01:30:33;99233.25;;;16.35;78.45
50282;BME280;36176;51.506;10.272;2022-07-25T01:33:01;99233.47;;;16.32;78.66
50282;BME280;36176;51.506;10.272;2022-07-25T01:35:32;99220.06;;;16.21;78.77
50282;BME280;36176;51.506;10.272;2022-07-25T01:38:00;99218.47;;;16.18;78.92
50282;BME280;36176;51.506;10.272;2022-07-25T01:40:27;99217.50;;;16.19;78.90
50282;BME280;36176;51.506;10.272;2022-07-25T01:42:54;99217.72;;;16.16;79.26
50282;BME280;36176;51.506;10.272;2022-07-25T01:45:21;99218.09;;;16.11;79.14
50282;BME280;36176;51.506;10.272;2022-07-25T01:47:48;99201.31;;;16.09;78.66
50282;BME280;36176;51.506;10.272;2022-07-25T01:50:15;99207.59;;;16.08;78.38
50282;BME280;36176;51.506;10.272;2022-07-25T01:52:42;99207.84;;;16.05;78.72
50282;BME280;36176;51.506;10.272;2022-07-25T01:55:10;99204.53;;;16.02;78.87
50282;BME280;36176;51.506;10.272;2022-07-25T01:57:38;99204.44;;;16.03;78.86
50282;BME280;36176;51.506;10.272;2022-07-25T02:00:08;99209.03;;;16.01;79.01
50282;BME280;36176;51.506;10.272;2022-07-25T02:02:36;99210.00;;;16.00;79.18
50282;BME280;36176;51.506;10.272;2022-07-25T02:05:03;99210.34;;;15.95;79.22
50282;BME280;36176;51.506;10.272;2022-07-25T02:07:31;99197.22;;;15.92;79.35
50282;BME280;36176;51.506;10.272;2022-07-25T02:09:58;99202.91;;;15.88;79.43
50282;BME280;36176;51.506;10.272;2022-07-25T02:12:25;99203.09;;;15.85;79.91
50282;BME280;36176;51.506;10.272;2022-07-25T02:14:52;99201.63;;;15.81;79.86
50282;BME280;36176;51.506;10.272;2022-07-25T02:17:19;99196.06;;;15.84;80.42
50282;BME280;36176;51.506;10.272;2022-07-25T02:19:46;99196.16;;;15.82;80.45
50282;BME280;36176;51.506;10.272;2022-07-25T02:22:14;99190.97;;;15.81;80.43
50282;BME280;36176;51.506;10.272;2022-07-25T02:24:41;99195.66;;;15.77;80.92
50282;BME280;36176;51.506;10.272;2022-07-25T02:27:09;99199.53;;;15.73;81.40
50282;BME280;36176;51.506;10.272;2022-07-25T02:29:38;99180.25;;;15.68;80.99
50282;BME280;36176;51.506;10.272;2022-07-25T02:32:05;99184.16;;;15.64;81.53
50282;BME280;36176;51.506;10.272;2022-07-25T02:34:32;99177.72;;;15.66;81.67
50282;BME280;36176;51.506;10.272;2022-07-25T02:36:59;99181.13;;;15.68;80.94
50282;BME280;36176;51.506;10.272;2022-07-25T02:39:26;99183.06;;;15.66;81.45
50282;BME280;36176;51.506;10.272;2022-07-25T02:41:54;99177.59;;;15.68;81.06
50282;BME280;36176;51.506;10.272;2022-07-25T02:44:21;99176.88;;;15.66;81.19
50282;BME280;36176;51.506;10.272;2022-07-25T02:46:48;99178.47;;;15.68;81.11
50282;BME280;36176;51.506;10.272;2022-07-25T02:49:15;99173.47;;;15.64;80.76
50282;BME280;36176;51.506;10.272;2022-07-25T02:51:42;99171.72;;;15.63;80.96
50282;BME280;36176;51.506;10.272;2022-07-25T02:54:15;99168.97;;;15.64;80.62
50282;BME280;36176;51.506;10.272;2022-07-25T02:56:46;99171.97;;;15.60;80.77
50282;BME280;36176;51.506;10.272;2022-07-25T02:59:13;99169.41;;;15.58;81.11
50282;BME280;36176;51.506;10.272;2022-07-25T03:01:40;99168.66;;;15.56;80.47
50282;BME280;36176;51.506;10.272;2022-07-25T03:04:07;99161.72;;;15.53;81.16
50282;BME280;36176;51.506;10.272;2022-07-25T03:06:35;99159.19;;;15.52;81.22
50282;BME280;36176;51.506;10.272;2022-07-25T03:09:03;99156.72;;;15.49;81.18
50282;BME280;36176;51.506;10.272;2022-07-25T03:11:30;99153.44;;;15.45;81.22
50282;BME280;36176;51.506;10.272;2022-07-25T03:13:57;99151.09;;;15.41;81.46
50282;BME280;36176;51.506;10.272;2022-07-25T03:16:24;99150.66;;;15.34;81.81
50282;BME280;36176;51.506;10.272;2022-07-25T03:18:52;99149.22;;;15.30;81.96
50282;BME280;36176;51.506;10.272;2022-07-25T03:21:19;99145.66;;;15.29;82.03
50282;BME280;36176;51.506;10.272;2022-07-25T03:23:46;99143.31;;;15.25;82.28
50282;BME280;36176;51.506;10.272;2022-07-25T03:26:19;99135.34;;;15.12;82.48
50282;BME280;36176;51.506;10.272;2022-07-25T03:28:47;99131.19;;;15.08;82.90
50282;BME280;36176;51.506;10.272;2022-07-25T03:31:17;99125.31;;;15.03;82.53
50282;BME280;36176;51.506;10.272;2022-07-25T03:33:45;99126.50;;;14.99;82.58
50282;BME280;36176;51.506;10.272;2022-07-25T03:36:13;99124.56;;;15.01;82.16
50282;BME280;36176;51.506;10.272;2022-07-25T03:38:44;99126.91;;;15.05;81.79
50282;BME280;36176;51.506;10.272;2022-07-25T03:41:32;99123.19;;;15.08;81.39
50282;BME280;36176;51.506;10.272;2022-07-25T03:44:24;99122.66;;;15.03;81.69
50282;BME280;36176;51.506;10.272;2022-07-25T03:47:31;99125.31;;;15.03;82.12
50282;BME280;36176;51.506;10.272;2022-07-25T03:50:29;99117.22;;;15.04;81.55
50282;BME280;36176;51.506;10.272;2022-07-25T03:53:11;99110.16;;;15.03;81.96
50282;BME280;36176;51.506;10.272;2022-07-25T03:55:50;99112.97;;;15.02;82.14
50282;BME280;36176;51.506;10.272;2022-07-25T03:58:26;99110.16;;;15.03;81.54
50282;BME280;36176;51.506;10.272;2022-07-25T04:00:58;99110.59;;;15.10;81.92
50282;BME280;36176;51.506;10.272;2022-07-25T04:03:33;99115.34;;;15.18;81.72
50282;BME280;36176;51.506;10.272;2022-07-25T04:06:04;99117.69;;;15.22;81.69
50282;BME280;36176;51.506;10.272;2022-07-25T04:08:42;99117.59;;;15.24;82.12
50282;BME280;36176;51.506;10.272;2022-07-25T04:11:17;99107.69;;;15.26;82.26
50282;BME280;36176;51.506;10.272;2022-07-25T04:13:45;99108.19;;;15.31;81.72
50282;BME280;36176;51.506;10.272;2022-07-25T04:16:17;99113.19;;;15.36;82.13
50282;BME280;36176;51.506;10.272;2022-07-25T04:18:58;99098.53;;;15.41;82.25
50282;BME280;36176;51.506;10.272;2022-07-25T04:21:35;99106.97;;;15.48;81.83
50282;BME280;36176;51.506;10.272;2022-07-25T04:24:07;99109.41;;;15.51;82.05
50282;BME280;36176;51.506;10.272;2022-07-25T04:26:44;99109.69;;;15.59;81.84
50282;BME280;36176;51.506;10.272;2022-07-25T04:29:21;99109.78;;;15.70;81.29
50282;BME280;36176;51.506;10.272;2022-07-25T04:31:55;99105.69;;;15.78;81.03
50282;BME280;36176;51.506;10.272;2022-07-25T04:34:46;99096.97;;;15.87;81.57
50282;BME280;36176;51.506;10.272;2022-07-25T04:37:23;99110.50;;;15.97;81.09
50282;BME280;36176;51.506;10.272;2022-07-25T04:40:06;99099.03;;;16.07;80.85
50282;BME280;36176;51.506;10.272;2022-07-25T04:42:46;99099.16;;;16.17;80.66
50282;BME280;36176;51.506;10.272;2022-07-25T04:45:28;99095.81;;;16.26;79.82
50282;BME280;36176;51.506;10.272;2022-07-25T04:48:07;99092.19;;;16.38;79.81
50282;BME280;36176;51.506;10.272;2022-07-25T04:50:36;99090.50;;;16.49;80.00
50282;BME280;36176;51.506;10.272;2022-07-25T04:53:03;99085.03;;;16.62;79.90
50282;BME280;36176;51.506;10.272;2022-07-25T04:55:31;99080.59;;;16.85;79.99
50282;BME280;36176;51.506;10.272;2022-07-25T04:58:00;99084.06;;;17.30;79.12
50282;BME280;36176;51.506;10.272;2022-07-25T05:00:28;99084.78;;;17.87;76.83
50282;BME280;36176;51.506;10.272;2022-07-25T05:02:55;99074.03;;;18.40;75.31
50282;BME280;36176;51.506;10.272;2022-07-25T05:09:03;99073.00;;;19.84;70.54
50282;BME280;36176;51.506;10.272;2022-07-25T05:12:11;99056.75;;;20.52;68.44
50282;BME280;36176;51.506;10.272;2022-07-25T05:15:36;99063.41;;;21.32;65.04
50282;BME280;36176;51.506;10.272;2022-07-25T05:18:12;99067.56;;;21.90;62.52
50282;BME280;36176;51.506;10.272;2022-07-25T05:21:14;99066.09;;;22.58;60.67
50282;BME280;36176;51.506;10.272;2022-07-25T05:23:59;99063.41;;;23.18;59.36
50282;BME280;36176;51.506;10.272;2022-07-25T05:26:26;99057.63;;;23.72;57.40
50282;BME280;36176;51.506;10.272;2022-07-25T05:28:54;99045.88;;;24.14;57.56
50282;BME280;36176;51.506;10.272;2022-07-25T05:31:21;99046.81;;;24.70;55.30
50282;BME280;36176;51.506;10.272;2022-07-25T05:33:48;99043.78;;;25.21;53.25
50282;BME280;36176;51.506;10.272;2022-07-25T05:36:15;99045.56;;;25.68;50.49
50282;BME280;36176;51.506;10.272;2022-07-25T05:38:44;99039.13;;;26.15;49.94
50282;BME280;36176;51.506;10.272;2022-07-25T05:41:11;99038.44;;;26.51;48.63
50282;BME280;36176;51.506;10.272;2022-07-25T05:43:40;99030.31;;;26.95;47.26
50282;BME280;36176;51.506;10.272;2022-07-25T05:46:12;99032.41;;;27.23;46.74
50282;BME280;36176;51.506;10.272;2022-07-25T05:48:40;99032.13;;;27.54;47.70
50282;BME280;36176;51.506;10.272;2022-07-25T05:51:08;99022.94;;;27.92;46.49
50282;BME280;36176;51.506;10.272;2022-07-25T05:53:35;99018.53;;;28.19;45.19
50282;BME280;36176;51.506;10.272;2022-07-25T05:56:03;99018.38;;;28.49;44.64
50282;BME280;36176;51.506;10.272;2022-07-25T05:58:30;99005.78;;;28.82;43.91
50282;BME280;36176;51.506;10.272;2022-07-25T06:00:58;99011.38;;;29.09;42.31
50282;BME280;36176;51.506;10.272;2022-07-25T06:03:25;99009.44;;;29.51;42.45
50282;BME280;36176;51.506;10.272;2022-07-25T06:05:54;99012.69;;;29.88;42.76
50282;BME280;36176;51.506;10.272;2022-07-25T06:08:22;98999.47;;;30.25;41.81
50282;BME280;36176;51.506;10.272;2022-07-25T06:10:50;98998.84;;;30.49;40.76
50282;BME280;36176;51.506;10.272;2022-07-25T06:13:17;99000.00;;;30.93;40.61
50282;BME280;36176;51.506;10.272;2022-07-25T06:15:46;99008.50;;;31.30;39.21
50282;BME280;36176;51.506;10.272;2022-07-25T06:18:14;98993.06;;;31.49;37.66
50282;BME280;36176;51.506;10.272;2022-07-25T06:20:41;98998.31;;;31.83;37.60
50282;BME280;36176;51.506;10.272;2022-07-25T06:23:08;98984.72;;;32.01;35.15
50282;BME280;36176;51.506;10.272;2022-07-25T06:25:35;98981.91;;;32.33;34.13
50282;BME280;36176;51.506;10.272;2022-07-25T06:28:02;98984.13;;;32.68;34.58
50282;BME280;36176;51.506;10.272;2022-07-25T06:30:30;98978.16;;;32.89;36.38
50282;BME280;36176;51.506;10.272;2022-07-25T06:32:57;98976.13;;;33.21;32.33
50282;BME280;36176;51.506;10.272;2022-07-25T06:35:24;98980.72;;;33.58;32.20
50282;BME280;36176;51.506;10.272;2022-07-25T06:37:51;98978.03;;;33.81;30.83
50282;BME280;36176;51.506;10.272;2022-07-25T06:40:18;98980.28;;;33.73;30.93
50282;BME280;36176;51.506;10.272;2022-07-25T06:42:46;98977.00;;;33.64;29.40
50282;BME280;36176;51.506;10.272;2022-07-25T06:45:14;98982.13;;;33.30;30.93
50282;BME280;36176;51.506;10.272;2022-07-25T06:47:42;98970.22;;;33.36;31.09
50282;BME280;36176;51.506;10.272;2022-07-25T06:53:13;98965.22;;;33.45;28.46
50282;BME280;36176;51.506;10.272;2022-07-25T06:55:41;98968.69;;;33.40;29.02
50282;BME280;36176;51.506;10.272;2022-07-25T06:58:08;98961.53;;;33.21;30.62
50282;BME280;36176;51.506;10.272;2022-07-25T07:00:35;98965.94;;;33.40;29.42
50282;BME280;36176;51.506;10.272;2022-07-25T07:03:02;98959.78;;;33.26;29.01
50282;BME280;36176;51.506;10.272;2022-07-25T07:05:31;98966.34;;;33.25;29.51
50282;BME280;36176;51.506;10.272;2022-07-25T07:07:59;98951.97;;;32.93;28.61
50282;BME280;36176;51.506;10.272;2022-07-25T07:10:27;98948.53;;;32.79;30.02
50282;BME280;36176;51.506;10.272;2022-07-25T07:13:06;98944.88;;;32.67;29.88
50282;BME280;36176;51.506;10.272;2022-07-25T07:15:34;98955.03;;;31.98;30.13
50282;BME280;36176;51.506;10.272;2022-07-25T07:18:02;98950.69;;;31.84;31.36
50282;BME280;36176;51.506;10.272;2022-07-25T07:20:29;98955.25;;;31.65;32.14
50282;BME280;36176;51.506;10.272;2022-07-25T07:22:57;98954.75;;;31.49;31.98
50282;BME280;36176;51.506;10.272;2022-07-25T07:25:24;98947.66;;;31.28;32.94
50282;BME280;36176;51.506;10.272;2022-07-25T07:27:54;98944.78;;;31.16;32.75
50282;BME280;36176;51.506;10.272;2022-07-25T07:30:21;98943.78;;;31.11;32.63
50282;BME280;36176;51.506;10.272;2022-07-25T07:32:59;98940.47;;;31.34;33.76
50282;BME280;36176;51.506;10.272;2022-07-25T07:35:26;98932.19;;;31.79;32.85
50282;BME280;36176;51.506;10.272;2022-07-25T07:37:53;98928.16;;;32.13;32.66
50282;BME280;36176;51.506;10.272;2022-07-25T07:40:21;98928.31;;;32.37;30.91
50282;BME280;36176;51.506;10.272;2022-07-25T07:42:49;98926.59;;;31.99;31.20
50282;BME280;36176;51.506;10.272;2022-07-25T07:45:29;98925.63;;;32.12;31.99
50282;BME280;36176;51.506;10.272;2022-07-25T07:47:57;98922.09;;;32.05;31.71
50282;BME280;36176;51.506;10.272;2022-07-25T07:50:25;98915.22;;;32.39;32.02
50282;BME280;36176;51.506;10.272;2022-07-25T07:52:54;98919.75;;;32.52;30.66
50282;BME280;36176;51.506;10.272;2022-07-25T07:55:22;98915.41;;;32.62;31.68
50282;BME280;36176;51.506;10.272;2022-07-25T07:58:08;98903.88;;;33.09;31.58
50282;BME280;36176;51.506;10.272;2022-07-25T08:00:36;98904.16;;;33.19;30.43
50282;BME280;36176;51.506;10.272;2022-07-25T08:03:06;98911.91;;;33.53;29.73
50282;BME280;36176;51.506;10.272;2022-07-25T08:05:37;98906.00;;;34.03;29.13
50282;BME280;36176;51.506;10.272;2022-07-25T08:08:06;98905.28;;;34.66;29.05
50282;BME280;36176;51.506;10.272;2022-07-25T08:10:35;98894.72;;;34.75;28.14
50282;BME280;36176;51.506;10.272;2022-07-25T08:13:10;98889.38;;;34.97;27.79
50282;BME280;36176;51.506;10.272;2022-07-25T08:15:38;98891.06;;;35.27;27.73
50282;BME280;36176;51.506;10.272;2022-07-25T08:18:05;98891.41;;;35.30;27.19
50282;BME280;36176;51.506;10.272;2022-07-25T08:20:44;98880.22;;;35.66;26.85
50282;BME280;36176;51.506;10.272;2022-07-25T08:23:11;98874.38;;;35.62;27.35
50282;BME280;36176;51.506;10.272;2022-07-25T08:25:38;98877.03;;;35.91;26.99
50282;BME280;36176;51.506;10.272;2022-07-25T08:28:06;98874.78;;;35.88;27.12
50282;BME280;36176;51.506;10.272;2022-07-25T08:30:33;98878.81;;;35.80;26.05
50282;BME280;36176;51.506;10.272;2022-07-25T08:33:03;98879.09;;;35.50;27.25
50282;BME280;36176;51.506;10.272;2022-07-25T08:35:31;98872.38;;;35.29;27.36
50282;BME280;36176;51.506;10.272;2022-07-25T08:37:59;98873.72;;;35.26;27.96
50282;BME280;36176;51.506;10.272;2022-07-25T08:40:26;98872.59;;;34.82;28.32
50282;BME280;36176;51.506;10.272;2022-07-25T08:42:54;98867.75;;;34.60;28.81
50282;BME280;36176;51.506;10.272;2022-07-25T08:45:22;98870.91;;;35.09;28.61
50282;BME280;36176;51.506;10.272;2022-07-25T08:47:50;98869.47;;;35.07;28.58
50282;BME280;36176;51.506;10.272;2022-07-25T08:50:18;98864.91;;;34.84;27.98
50282;BME280;36176;51.506;10.272;2022-07-25T08:52:46;98869.38;;;35.02;28.85
50282;BME280;36176;51.506;10.272;2022-07-25T08:55:16;98857.22;;;35.43;28.34
50282;BME280;36176;51.506;10.272;2022-07-25T08:57:50;98853.69;;;35.31;27.59
50282;BME280;36176;51.506;10.272;2022-07-25T09:00:22;98854.19;;;35.11;28.07
50282;BME280;36176;51.506;10.272;2022-07-25T09:02:53;98850.69;;;35.15;28.16
50282;BME280;36176;51.506;10.272;2022-07-25T09:05:21;98848.28;;;35.07;27.93
50282;BME280;36176;51.506;10.272;2022-07-25T09:07:48;98844.00;;;35.11;28.08
50282;BME280;36176;51.506;10.272;2022-07-25T09:10:20;98846.88;;;35.50;28.30
50282;BME280;36176;51.506;10.272;2022-07-25T09:17:51;98828.34;;;35.63;29.63
50282;BME280;36176;51.506;10.272;2022-07-25T09:20:18;98843.53;;;36.16;28.11
50282;BME280;36176;51.506;10.272;2022-07-25T09:22:47;98834.97;;;36.17;27.28
50282;BME280;36176;51.506;10.272;2022-07-25T09:25:21;98830.09;;;35.52;27.69
50282;BME280;36176;51.506;10.272;2022-07-25T09:27:48;98834.28;;;35.54;28.27
50282;BME280;36176;51.506;10.272;2022-07-25T09:30:15;98826.25;;;35.36;28.38
50282;BME280;36176;51.506;10.272;2022-07-25T09:32:42;98842.44;;;35.32;27.77
50282;BME280;36176;51.506;10.272;2022-07-25T09:35:10;98823.28;;;35.71;28.22
50282;BME280;36176;51.506;10.272;2022-07-25T09:37:38;98820.88;;;35.75;27.10
50282;BME280;36176;51.506;10.272;2022-07-25T09:40:12;98826.16;;;35.14;28.23
50282;BME280;36176;51.506;10.272;2022-07-25T09:42:40;98828.00;;;35.25;29.16
50282;BME280;36176;51.506;10.272;2022-07-25T09:45:09;98817.16;;;35.52;28.34
50282;BME280;36176;51.506;10.272;2022-07-25T09:47:49;98813.16;;;35.60;28.59
50282;BME280;36176;51.506;10.272;2022-07-25T09:50:17;98814.34;;;36.20;27.39
50282;BME280;36176;51.506;10.272;2022-07-25T09:52:44;98805.69;;;36.33;27.27
50282;BME280;36176;51.506;10.272;2022-07-25T09:55:11;98800.25;;;36.60;26.82
50282;BME280;36176;51.506;10.272;2022-07-25T09:57:40;98806.00;;;36.37;26.63
50282;BME280;36176;51.506;10.272;2022-07-25T10:00:07;98795.53;;;36.39;28.26
50282;BME280;36176;51.506;10.272;2022-07-25T10:02:45;98796.00;;;36.53;28.53
50282;BME280;36176;51.506;10.272;2022-07-25T10:05:15;98791.03;;;36.28;27.34
50282;BME280;36176;51.506;10.272;2022-07-25T10:07:46;98781.50;;;36.40;28.50
50282;BME280;36176;51.506;10.272;2022-07-25T10:10:24;98782.47;;;36.73;26.66
50282;BME280;36176;51.506;10.272;2022-07-25T10:12:59;98774.63;;;36.65;26.61
50282;BME280;36176;51.506;10.272;2022-07-25T10:15:44;98779.47;;;36.80;27.58
50282;BME280;36176;51.506;10.272;2022-07-25T10:18:12;98770.47;;;37.17;27.77
50282;BME280;36176;51.506;10.272;2022-07-25T10:20:39;98768.31;;;37.56;26.32
50282;BME280;36176;51.506;10.272;2022-07-25T10:23:20;98755.28;;;37.94;25.80
50282;BME280;36176;51.506;10.272;2022-07-25T10:26:06;98760.59;;;38.01;24.97
50282;BME280;36176;51.506;10.272;2022-07-25T10:28:44;98757.06;;;38.16;26.22
50282;BME280;36176;51.506;10.272;2022-07-25T10:33:58;98749.59;;;38.16;23.80
50282;BME280;36176;51.506;10.272;2022-07-25T10:36:28;98746.22;;;37.56;25.11
50282;BME280;36176;51.506;10.272;2022-07-25T10:39:08;98747.94;;;37.67;25.89
50282;BME280;36176;51.506;10.272;2022-07-25T10:41:37;98749.06;;;37.34;24.47
50282;BME280;36176;51.506;10.272;2022-07-25T10:44:09;98746.06;;;36.76;25.81
50282;BME280;36176;51.506;10.272;2022-07-25T10:46:37;98743.59;;;36.09;26.00
50282;BME280;36176;51.506;10.272;2022-07-25T10:49:05;98749.19;;;35.58;27.21
50282;BME280;36176;51.506;10.272;2022-07-25T10:51:33;98745.78;;;35.34;27.54
50282;BME280;36176;51.506;10.272;2022-07-25T10:54:16;98745.38;;;35.42;26.89
50282;BME280;36176;51.506;10.272;2022-07-25T10:56:52;98742.13;;;35.45;27.70
50282;BME280;36176;51.506;10.272;2022-07-25T11:01:54;98738.38;;;35.90;26.46
50282;BME280;36176;51.506;10.272;2022-07-25T11:04:21;98727.72;;;36.16;26.58
50282;BME280;36176;51.506;10.272;2022-07-25T11:06:48;98726.13;;;36.69;26.52
50282;BME280;36176;51.506;10.272;2022-07-25T11:09:17;98724.94;;;36.92;25.21
50282;BME280;36176;51.506;10.272;2022-07-25T11:11:51;98731.72;;;36.79;24.83
50282;BME280;36176;51.506;10.272;2022-07-25T11:14:23;98716.97;;;36.64;23.98
50282;BME280;36176;51.506;10.272;2022-07-25T11:16:51;98714.38;;;36.57;24.62
50282;BME280;36176;51.506;10.272;2022-07-25T11:21:47;98721.19;;;36.71;22.24
50282;BME280;36176;51.506;10.272;2022-07-25T11:24:14;98712.97;;;36.54;24.15
50282;BME280;36176;51.506;10.272;2022-07-25T11:26:45;98720.94;;;36.51;24.44
50282;BME280;36176;51.506;10.272;2022-07-25T11:31:55;98703.19;;;36.96;23.61
50282;BME280;36176;51.506;10.272;2022-07-25T11:34:24;98702.91;;;36.65;24.80
50282;BME280;36176;51.506;10.272;2022-07-25T11:36:53;98692.44;;;36.18;24.14
50282;BME280;36176;51.506;10.272;2022-07-25T11:39:33;98696.59;;;35.76;24.25
50282;BME280;36176;51.506;10.272;2022-07-25T11:42:05;98691.38;;;35.41;24.96
50282;BME280;36176;51.506;10.272;2022-07-25T11:44:33;98694.56;;;35.33;26.78
50282;BME280;36176;51.506;10.272;2022-07-25T11:47:01;98690.13;;;35.49;25.40
50282;BME280;36176;51.506;10.272;2022-07-25T11:49:28;98689.41;;;35.97;25.51
50282;BME280;36176;51.506;10.272;2022-07-25T11:51:56;98684.34;;;36.33;24.83
50282;BME280;36176;51.506;10.272;2022-07-25T11:54:23;98674.44;;;36.10;25.01
50282;BME280;36176;51.506;10.272;2022-07-25T11:56:51;98684.34;;;35.89;25.58
50282;BME280;36176;51.506;10.272;2022-07-25T11:59:18;98672.13;;;35.80;26.01
50282;BME280;36176;51.506;10.272;2022-07-25T12:01:45;98680.97;;;35.82;25.69
50282;BME280;36176;51.506;10.272;2022-07-25T12:04:15;98674.59;;;35.82;26.31
50282;BME280;36176;51.506;10.272;2022-07-25T12:06:43;98678.00;;;35.67;25.96
50282;BME280;36176;51.506;10.272;2022-07-25T12:09:13;98678.44;;;35.58;25.84
50282;BME280;36176;51.506;10.272;2022-07-25T12:11:44;98670.31;;;35.69;25.63
50282;BME280;36176;51.506;10.272;2022-07-25T12:14:11;98672.13;;;35.80;24.84
50282;BME280;36176;51.506;10.272;2022-07-25T12:16:38;98655.31;;;35.82;25.02
50282;BME280;36176;51.506;10.272;2022-07-25T12:19:18;98658.53;;;35.73;24.91
50282;BME280;36176;51.506;10.272;2022-07-25T12:21:46;98660.16;;;35.96;24.68
50282;BME280;36176;51.506;10.272;2022-07-25T12:24:13;98654.06;;;36.11;24.19
50282;BME280;36176;51.506;10.272;2022-07-25T12:26:40;98650.34;;;36.06;23.89
50282;BME280;36176;51.506;10.272;2022-07-25T12:29:07;98652.94;;;36.39;24.27
50282;BME280;36176;51.506;10.272;2022-07-25T12:31:35;98653.78;;;36.99;25.52
50282;BME280;36176;51.506;10.272;2022-07-25T12:34:02;98652.22;;;37.09;23.83
50282;BME280;36176;51.506;10.272;2022-07-25T12:36:29;98637.25;;;36.67;23.22
50282;BME280;36176;51.506;10.272;2022-07-25T12:38:56;98627.59;;;36.37;24.14
50282;BME280;36176;51.506;10.272;2022-07-25T12:41:23;98630.22;;;36.05;24.33
50282;BME280;36176;51.506;10.272;2022-07-25T12:43:51;98645.75;;;36.33;24.81
50282;BME280;36176;51.506;10.272;2022-07-25T12:46:17;98636.13;;;36.68;25.56
50282;BME280;36176;51.506;10.272;2022-07-25T12:48:45;98635.09;;;36.74;25.46
50282;BME280;36176;51.506;10.272;2022-07-25T12:51:12;98631.78;;;36.72;23.25
50282;BME280;36176;51.506;10.272;2022-07-25T12:53:39;98630.88;;;36.61;24.17
50282;BME280;36176;51.506;10.272;2022-07-25T12:56:08;98624.88;;;36.42;24.28
50282;BME280;36176;51.506;10.272;2022-07-25T12:58:35;98621.63;;;36.51;25.08
50282;BME280;36176;51.506;10.272;2022-07-25T13:01:03;98619.97;;;36.82;24.33
50282;BME280;36176;51.506;10.272;2022-07-25T13:03:31;98617.63;;;37.01;23.68
50282;BME280;36176;51.506;10.272;2022-07-25T13:05:58;98616.19;;;36.93;24.64
50282;BME280;36176;51.506;10.272;2022-07-25T13:08:25;98608.09;;;36.81;24.83
50282;BME280;36176;51.506;10.272;2022-07-25T13:10:52;98617.94;;;36.67;23.83
50282;BME280;36176;51.506;10.272;2022-07-25T13:13:19;98620.66;;;36.62;23.13
50282;BME280;36176;51.506;10.272;2022-07-25T13:15:46;98623.81;;;36.49;23.21
50282;BME280;36176;51.506;10.272;2022-07-25T13:18:13;98629.16;;;36.28;23.39
50282;BME280;36176;51.506;10.272;2022-07-25T13:20:39;98610.88;;;36.22;23.41
50282;BME280;36176;51.506;10.272;2022-07-25T13:23:07;98606.09;;;36.12;23.53
50282;BME280;36176;51.506;10.272;2022-07-25T13:25:33;98605.44;;;36.05;23.16
50282;BME280;36176;51.506;10.272;2022-07-25T13:28:02;98608.09;;;35.95;22.75